createdAt,value
2022-11-15T00:00:08.665Z,33.33
2022-11-15T00:01:59.188Z,35.38
2022-11-15T00:03:52.624Z,35.35
2022-11-15T00:05:43.378Z,34.25
2022-11-15T00:07:54.473Z,29.00
2022-11-15T00:09:46.072Z,36.92
2022-11-15T00:11:37.001Z,34.53
2022-11-15T00:13:27.852Z,35.72
2022-11-15T00:15:18.481Z,35.05
2022-11-15T00:17:08.843Z,35.85
2022-11-15T00:18:59.249Z,36.40
2022-11-15T00:20:49.677Z,34.50
2022-11-15T00:22:39.823Z,35.88
2022-11-15T00:24:30.050Z,35.72
2022-11-15T00:26:20.473Z,36.17
2022-11-15T00:28:10.892Z,36.22
2022-11-15T00:30:01.157Z,37.03
2022-11-15T00:31:51.254Z,34.75
2022-11-15T00:33:44.218Z,35.03
2022-11-15T00:35:35.578Z,35.80
2022-11-15T00:37:25.776Z,36.30
2022-11-15T00:39:15.804Z,34.20
2022-11-15T00:41:09.951Z,36.75
2022-11-15T00:43:00.359Z,38.92
2022-11-15T00:44:51.069Z,37.70
2022-11-15T00:46:41.233Z,37.25
2022-11-15T00:48:32.531Z,37.30
2022-11-15T00:50:22.805Z,38.55
2022-11-15T00:52:13.220Z,39.95
2022-11-15T00:54:04.038Z,36.25
2022-11-15T00:55:54.641Z,35.93
2022-11-15T00:57:45.412Z,38.13
2022-11-15T00:59:35.848Z,38.70
2022-11-15T01:01:26.261Z,38.20
2022-11-15T01:03:16.570Z,40.33
2022-11-15T01:05:07.263Z,40.20
2022-11-15T01:06:57.300Z,36.80
2022-11-15T01:08:47.263Z,37.15
2022-11-15T01:10:38.010Z,41.60
2022-11-15T01:12:28.113Z,38.03
2022-11-15T01:14:24.203Z,37.97
2022-11-15T01:16:21.030Z,39.15
2022-11-15T01:18:11.419Z,40.78
2022-11-15T01:20:01.730Z,38.83
2022-11-15T01:21:52.656Z,38.70
2022-11-15T01:23:43.302Z,39.92
2022-11-15T01:25:33.644Z,39.83
2022-11-15T01:27:24.211Z,35.50
2022-11-15T01:29:14.337Z,38.95
2022-11-15T01:31:08.467Z,38.47
2022-11-15T01:32:58.521Z,38.03
2022-11-15T01:34:48.825Z,37.42
2022-11-15T01:36:39.121Z,36.50
2022-11-15T01:38:29.429Z,37.95
2022-11-15T01:40:19.708Z,37.63
2022-11-15T01:42:14.416Z,37.53
2022-11-15T01:44:32.633Z,38.65
2022-11-15T01:46:22.864Z,39.15
2022-11-15T01:48:13.087Z,37.75
2022-11-15T01:50:12.221Z,36.40
2022-11-15T01:52:07.883Z,37.42
2022-11-15T01:54:04.557Z,38.15
2022-11-15T01:55:55.077Z,38.17
2022-11-15T01:57:47.662Z,34.58
2022-11-15T01:59:41.273Z,37.70
2022-11-15T02:01:33.987Z,36.67
2022-11-15T02:03:32.889Z,36.03
2022-11-15T02:05:23.669Z,38.63
2022-11-15T02:07:17.796Z,36.30
2022-11-15T02:09:08.494Z,37.75
2022-11-15T02:10:58.824Z,35.67
2022-11-15T02:12:50.558Z,37.65
2022-11-15T02:16:59.440Z,37.22
2022-11-15T02:18:59.016Z,37.35
2022-11-15T02:20:56.474Z,34.95
2022-11-15T02:23:08.388Z,38.20
2022-11-15T02:25:07.339Z,37.28
2022-11-15T02:27:10.660Z,36.35
2022-11-15T02:29:06.992Z,37.28
2022-11-15T02:31:22.677Z,36.03
2022-11-15T02:33:28.020Z,36.65
2022-11-15T02:35:38.770Z,36.63
2022-11-15T02:37:43.727Z,36.88
2022-11-15T02:39:43.217Z,35.40
2022-11-15T02:41:47.949Z,35.15
2022-11-15T02:43:59.565Z,35.80
2022-11-15T02:45:54.819Z,37.05
2022-11-15T02:47:49.021Z,38.20
2022-11-15T02:49:42.624Z,36.95
2022-11-15T02:51:34.141Z,36.35
2022-11-15T02:53:27.405Z,34.95
2022-11-15T02:55:50.281Z,34.50
2022-11-15T02:57:53.715Z,36.53
2022-11-15T03:00:09.366Z,36.97
2022-11-15T03:02:17.703Z,35.25
2022-11-15T03:04:36.390Z,37.17
2022-11-15T03:06:30.392Z,38.13
2022-11-15T03:08:33.831Z,36.70
2022-11-15T03:10:58.846Z,37.08
2022-11-15T03:13:17.665Z,37.80
2022-11-15T03:15:16.905Z,36.58
2022-11-15T03:17:13.127Z,32.03
2022-11-15T03:19:18.390Z,33.85
2022-11-15T03:21:12.415Z,36.80
2022-11-15T03:23:07.975Z,35.10
2022-11-15T03:25:03.140Z,34.97
2022-11-15T03:26:56.280Z,33.17
2022-11-15T03:28:59.088Z,33.80
2022-11-15T03:30:53.002Z,33.60
2022-11-15T03:32:48.570Z,34.45
2022-11-15T03:34:53.283Z,33.20
2022-11-15T03:36:44.778Z,33.83
2022-11-15T03:40:38.074Z,37.28
2022-11-15T03:42:43.748Z,37.90
2022-11-15T03:44:47.233Z,36.92
2022-11-15T03:46:44.002Z,38.40
2022-11-15T03:48:43.950Z,37.30
2022-11-15T03:50:34.964Z,35.55
2022-11-15T03:52:25.390Z,37.60
2022-11-15T03:54:15.784Z,36.05
2022-11-15T03:56:06.058Z,37.13
2022-11-15T03:58:00.493Z,35.72
2022-11-15T03:59:50.778Z,36.20
2022-11-15T04:01:41.162Z,37.30
2022-11-15T04:03:31.676Z,37.03
2022-11-15T04:05:22.236Z,36.50
2022-11-15T04:07:12.350Z,38.03
2022-11-15T04:09:04.142Z,37.33
2022-11-15T04:12:48.699Z,34.47
2022-11-15T04:14:59.138Z,34.85
2022-11-15T04:16:49.163Z,34.45
2022-11-15T04:18:39.237Z,34.88
2022-11-15T04:20:49.903Z,35.38
2022-11-15T04:22:58.629Z,32.83
2022-11-15T04:24:48.870Z,32.95
2022-11-15T04:26:39.145Z,32.72
2022-11-15T04:28:29.026Z,34.58
2022-11-15T04:30:19.335Z,34.30
2022-11-15T04:32:09.481Z,34.00
2022-11-15T04:33:59.850Z,33.67
2022-11-15T04:36:08.800Z,34.85
2022-11-15T04:37:59.716Z,34.83
2022-11-15T04:39:50.080Z,34.75
2022-11-15T04:41:40.241Z,34.42
2022-11-15T04:43:31.287Z,34.73
2022-11-15T04:45:22.021Z,35.00
2022-11-15T04:47:12.328Z,37.13
2022-11-15T04:49:02.405Z,35.70
2022-11-15T04:50:52.954Z,33.20
2022-11-15T04:52:45.272Z,32.38
2022-11-15T04:54:35.652Z,29.20
2022-11-15T04:56:25.678Z,32.45
2022-11-15T04:58:15.924Z,31.65
2022-11-15T05:00:12.855Z,33.85
2022-11-15T05:02:03.239Z,32.85
2022-11-15T05:04:12.263Z,34.28
2022-11-15T05:06:02.733Z,33.47
2022-11-15T05:07:52.841Z,32.05
2022-11-15T05:09:43.327Z,34.88
2022-11-15T05:11:33.789Z,33.60
2022-11-15T05:13:24.132Z,33.33
2022-11-15T05:15:14.405Z,34.55
2022-11-15T05:17:04.630Z,33.92
2022-11-15T05:18:55.621Z,33.60
2022-11-15T05:20:46.140Z,35.05
2022-11-15T05:22:36.315Z,36.15
2022-11-15T05:24:26.305Z,36.78
2022-11-15T05:26:18.624Z,33.88
2022-11-15T05:28:08.701Z,34.95
2022-11-15T05:29:59.043Z,35.67
2022-11-15T05:31:49.359Z,34.67
2022-11-15T05:33:40.918Z,36.90
2022-11-15T05:35:35.610Z,35.40
2022-11-15T05:37:25.834Z,33.95
2022-11-15T05:39:16.339Z,33.88
2022-11-15T05:41:07.207Z,33.75
2022-11-15T05:42:58.616Z,31.10
2022-11-15T05:44:50.655Z,32.38
2022-11-15T05:46:41.811Z,32.38
2022-11-15T05:48:33.649Z,35.38
2022-11-15T05:50:24.268Z,34.65
2022-11-15T05:52:18.045Z,31.95
2022-11-15T05:54:08.808Z,32.95
2022-11-15T05:55:59.204Z,32.45
2022-11-15T05:57:49.572Z,33.25
2022-11-15T05:59:41.576Z,33.08
2022-11-15T06:01:31.717Z,35.92
2022-11-15T06:03:22.183Z,35.83
2022-11-15T06:05:12.534Z,31.88
2022-11-15T06:07:03.006Z,32.20
2022-11-15T06:08:53.459Z,32.53
2022-11-15T06:10:43.627Z,33.10
2022-11-15T06:12:33.781Z,31.15
2022-11-15T06:14:24.247Z,31.98
2022-11-15T06:16:14.608Z,32.40
2022-11-15T06:18:05.009Z,31.20
2022-11-15T06:19:55.043Z,30.83
2022-11-15T06:21:45.373Z,33.28
2022-11-15T06:23:36.337Z,32.25
2022-11-15T06:25:27.653Z,34.50
2022-11-15T06:27:18.004Z,33.42
2022-11-15T06:29:08.616Z,33.80
2022-11-15T06:31:07.451Z,34.22
2022-11-15T06:33:05.838Z,34.15
2022-11-15T06:34:56.541Z,33.90
2022-11-15T06:36:46.882Z,33.30
2022-11-15T06:38:37.579Z,36.53
2022-11-15T06:40:28.009Z,34.78
2022-11-15T06:42:18.036Z,34.03
2022-11-15T06:44:08.247Z,32.72
2022-11-15T06:46:02.157Z,35.03
2022-11-15T06:47:52.492Z,34.33
2022-11-15T06:49:42.738Z,34.88
2022-11-15T06:51:33.289Z,35.08
2022-11-15T06:53:24.007Z,35.15
2022-11-15T06:55:14.181Z,35.00
2022-11-15T06:57:05.854Z,33.45
2022-11-15T06:58:56.806Z,34.17
2022-11-15T07:00:46.870Z,34.00
2022-11-15T07:02:36.808Z,34.38
2022-11-15T07:04:27.171Z,34.42
2022-11-15T07:06:17.456Z,35.08
2022-11-15T07:08:07.861Z,33.92
2022-11-15T07:09:58.490Z,24.10
2022-11-15T07:11:48.462Z,34.00
2022-11-15T07:13:39.083Z,34.95
2022-11-15T07:15:29.561Z,36.20
2022-11-15T07:17:19.788Z,37.55
2022-11-15T07:19:10.536Z,32.00
2022-11-15T07:21:05.224Z,34.92
2022-11-15T07:23:03.161Z,33.22
2022-11-15T07:24:53.400Z,32.05
2022-11-15T07:26:43.843Z,32.97
2022-11-15T07:28:35.273Z,32.90
2022-11-15T07:30:26.759Z,31.50
2022-11-15T07:32:16.928Z,33.63
2022-11-15T07:34:07.337Z,33.33
2022-11-15T07:36:03.372Z,32.35
2022-11-15T07:37:55.048Z,35.17
2022-11-15T07:39:45.557Z,32.65
2022-11-15T07:41:36.129Z,33.63
2022-11-15T07:43:28.982Z,35.47
2022-11-15T07:45:19.764Z,31.45
2022-11-15T07:47:09.800Z,31.33
2022-11-15T07:49:00.207Z,31.35
2022-11-15T07:50:50.304Z,30.30
2022-11-15T07:52:40.453Z,32.55
2022-11-15T07:54:30.857Z,30.45
2022-11-15T07:56:21.896Z,31.98
2022-11-15T07:58:13.013Z,31.25
2022-11-15T08:00:05.393Z,32.28
2022-11-15T08:01:55.596Z,30.60
2022-11-15T08:03:45.851Z,30.67
2022-11-15T08:05:38.020Z,33.25
2022-11-15T08:07:30.552Z,31.23
2022-11-15T08:09:21.298Z,33.20
2022-11-15T08:11:11.338Z,34.47
2022-11-15T08:13:03.521Z,31.45
2022-11-15T08:14:53.903Z,29.02
2022-11-15T08:16:44.202Z,34.78
2022-11-15T08:18:34.594Z,30.98
2022-11-15T08:20:26.702Z,34.22
2022-11-15T08:22:17.253Z,30.45
2022-11-15T08:24:10.986Z,30.70
2022-11-15T08:26:03.356Z,31.67
2022-11-15T08:27:57.194Z,32.58
2022-11-15T08:29:49.358Z,33.83
2022-11-15T08:31:39.795Z,32.05
2022-11-15T08:33:31.091Z,31.45
2022-11-15T08:35:26.289Z,30.08
2022-11-15T08:37:19.237Z,31.60
2022-11-15T08:39:12.522Z,32.88
2022-11-15T08:41:05.010Z,29.67
2022-11-15T08:42:55.084Z,27.73
2022-11-15T08:44:45.274Z,28.40
2022-11-15T08:46:35.546Z,26.77
2022-11-15T08:48:25.779Z,25.60
2022-11-15T08:50:16.848Z,27.67
2022-11-15T08:52:06.987Z,27.23
2022-11-15T08:53:57.031Z,29.77
2022-11-15T08:55:47.309Z,26.92
2022-11-15T08:57:38.011Z,25.20
2022-11-15T08:59:28.691Z,25.10
2022-11-15T09:01:20.794Z,25.30
2022-11-15T09:03:11.281Z,24.98
2022-11-15T09:05:01.384Z,24.23
2022-11-15T09:06:51.798Z,23.88
2022-11-15T09:08:49.301Z,24.58
2022-11-15T09:10:39.712Z,24.77
2022-11-15T09:12:29.941Z,22.75
2022-11-15T09:14:20.096Z,23.75
2022-11-15T09:16:10.525Z,23.55
2022-11-15T09:18:00.927Z,21.08
2022-11-15T09:19:51.080Z,23.80
2022-11-15T09:21:41.500Z,21.65
2022-11-15T09:23:31.628Z,23.98
2022-11-15T09:25:22.105Z,22.15
2022-11-15T09:27:13.133Z,20.00
2022-11-15T09:29:04.430Z,24.05
2022-11-15T09:31:03.552Z,21.25
2022-11-15T09:32:53.659Z,21.50
2022-11-15T09:34:43.667Z,21.58
2022-11-15T09:36:33.739Z,20.88
2022-11-15T09:38:23.949Z,20.45
2022-11-15T09:40:17.999Z,20.67
2022-11-15T09:42:39.217Z,20.98
2022-11-15T09:44:55.107Z,21.52
2022-11-15T09:47:03.205Z,22.83
2022-11-15T09:49:02.828Z,23.38
2022-11-15T09:51:00.530Z,20.48
2022-11-15T09:52:32.350Z,19.55
2022-11-15T09:54:52.826Z,18.50
2022-11-15T09:56:21.790Z,19.35
2022-11-15T09:58:05.024Z,19.13
2022-11-15T09:59:45.627Z,19.65
2022-11-15T10:01:40.296Z,22.52
2022-11-15T10:03:19.191Z,20.35
2022-11-15T10:04:51.886Z,19.80
2022-11-15T10:06:25.850Z,20.10
2022-11-15T10:08:19.781Z,20.20
2022-11-15T10:09:54.509Z,19.77
2022-11-15T10:11:37.441Z,20.15
2022-11-15T10:13:26.997Z,18.80
2022-11-15T10:15:05.459Z,21.38
2022-11-15T10:16:49.402Z,20.52
2022-11-15T10:18:35.947Z,19.88
2022-11-15T10:20:29.455Z,20.27
2022-11-15T10:22:25.634Z,16.95
2022-11-15T10:23:57.389Z,18.48
2022-11-15T10:25:31.741Z,17.60
2022-11-15T10:27:10.426Z,18.42
2022-11-15T10:28:42.359Z,17.58
2022-11-15T10:30:19.771Z,16.83
2022-11-15T10:31:52.210Z,17.55
2022-11-15T10:33:35.439Z,18.40
2022-11-15T10:35:20.469Z,17.63
2022-11-15T10:37:01.320Z,18.38
2022-11-15T10:38:33.523Z,17.55
2022-11-15T10:40:07.504Z,16.45
2022-11-15T10:41:41.426Z,18.13
2022-11-15T10:43:16.529Z,16.58
2022-11-15T10:44:48.313Z,18.00
2022-11-15T10:46:45.489Z,17.73
2022-11-15T10:48:14.364Z,17.40
2022-11-15T10:49:56.803Z,17.40
2022-11-15T10:51:30.949Z,17.50
2022-11-15T10:53:03.884Z,18.77
2022-11-15T10:54:49.618Z,19.55
2022-11-15T10:56:23.378Z,19.33
2022-11-15T10:58:02.355Z,18.90
2022-11-15T10:59:39.405Z,18.00
2022-11-15T11:01:20.669Z,16.75
2022-11-15T11:03:10.916Z,17.70
2022-11-15T11:04:52.770Z,18.15
2022-11-15T11:06:24.595Z,17.20
2022-11-15T11:07:59.819Z,19.33
2022-11-15T11:09:43.310Z,17.95
2022-11-15T11:11:15.058Z,18.25
2022-11-15T11:12:46.814Z,18.55
2022-11-15T11:14:32.426Z,17.80
2022-11-15T11:16:19.076Z,17.58
2022-11-15T11:18:16.398Z,16.55
2022-11-15T11:19:48.181Z,16.30
2022-11-15T11:21:52.337Z,18.00
2022-11-15T11:23:59.282Z,16.83
2022-11-15T11:25:41.360Z,15.93
2022-11-15T11:27:19.713Z,18.45
2022-11-15T11:29:27.174Z,17.02
2022-11-15T11:31:17.463Z,18.90
2022-11-15T11:33:33.097Z,16.55
2022-11-15T11:35:13.146Z,16.60
2022-11-15T11:37:13.215Z,17.55
2022-11-15T11:38:56.975Z,17.50
2022-11-15T11:40:46.383Z,17.45
2022-11-15T11:42:35.903Z,18.35
2022-11-15T11:44:13.907Z,18.30
2022-11-15T11:45:56.198Z,18.55
2022-11-15T11:47:41.272Z,17.52
2022-11-15T11:49:44.175Z,17.63
2022-11-15T11:51:29.776Z,18.92
2022-11-15T11:53:12.781Z,22.17
2022-11-15T11:55:22.922Z,20.92
2022-11-15T11:56:55.993Z,22.00
2022-11-15T11:58:39.788Z,19.70
2022-11-15T12:00:27.129Z,22.48
2022-11-15T12:02:11.367Z,19.95
2022-11-15T12:03:52.247Z,22.90
2022-11-15T12:05:43.263Z,22.25
2022-11-15T12:07:21.384Z,21.88
2022-11-15T12:08:59.280Z,25.92
2022-11-15T12:10:34.572Z,21.45
2022-11-15T12:12:20.081Z,21.00
2022-11-15T12:13:59.107Z,22.83
2022-11-15T12:15:52.011Z,20.63
2022-11-15T12:17:33.199Z,22.95
2022-11-15T12:19:05.951Z,19.05
2022-11-15T12:20:41.843Z,21.40
2022-11-15T12:22:32.770Z,19.60
2022-11-15T12:24:12.685Z,20.77
2022-11-15T12:25:51.440Z,19.17
2022-11-15T12:27:38.472Z,20.20
2022-11-15T12:29:20.835Z,21.40
2022-11-15T12:31:02.229Z,19.55
2022-11-15T12:34:23.119Z,19.20
2022-11-15T12:36:00.736Z,17.88
2022-11-15T12:37:48.479Z,20.80
2022-11-15T12:39:20.811Z,21.88
2022-11-15T12:41:18.886Z,19.42
2022-11-15T12:43:16.467Z,18.35
2022-11-15T12:44:48.150Z,20.35
2022-11-15T12:46:30.418Z,21.50
2022-11-15T12:48:17.594Z,19.73
2022-11-15T12:49:49.846Z,18.48
2022-11-15T12:51:43.047Z,18.60
2022-11-15T12:53:23.893Z,16.90
2022-11-15T12:54:58.213Z,18.27
2022-11-15T12:56:29.991Z,18.38
2022-11-15T12:58:27.464Z,18.23
2022-11-15T13:00:09.160Z,17.30
2022-11-15T13:01:40.898Z,18.05
2022-11-15T13:03:24.656Z,19.90
2022-11-15T13:05:23.600Z,18.40
2022-11-15T13:07:01.251Z,17.58
2022-11-15T13:08:41.285Z,16.08
2022-11-15T13:10:12.998Z,17.45
2022-11-15T13:11:47.623Z,17.60
2022-11-15T13:13:44.859Z,18.02
2022-11-15T13:15:23.003Z,18.95
2022-11-15T13:17:13.695Z,18.35
2022-11-15T13:18:55.616Z,18.03
2022-11-15T13:20:32.305Z,18.55
2022-11-15T13:22:24.922Z,16.77
2022-11-15T13:23:56.867Z,18.00
2022-11-15T13:25:34.351Z,17.25
2022-11-15T13:27:19.512Z,16.73
2022-11-15T13:28:55.756Z,18.00
2022-11-15T13:30:30.977Z,18.55
2022-11-15T13:32:02.779Z,17.10
2022-11-15T13:33:37.281Z,17.27
2022-11-15T13:35:09.029Z,17.42
2022-11-15T13:36:40.875Z,16.98
2022-11-15T13:38:26.228Z,18.35
2022-11-15T13:40:16.422Z,18.48
2022-11-15T13:41:53.050Z,16.73
2022-11-15T13:43:29.551Z,17.38
2022-11-15T13:45:04.305Z,17.23
2022-11-15T13:46:36.181Z,18.30
2022-11-15T13:48:09.300Z,19.30
2022-11-15T13:49:41.840Z,16.67
2022-11-15T13:51:22.686Z,15.98
2022-11-15T13:52:58.124Z,19.65
2022-11-15T13:54:51.856Z,17.65
2022-11-15T13:56:24.152Z,16.33
2022-11-15T13:57:59.654Z,17.48
2022-11-15T14:00:06.105Z,16.83
2022-11-15T14:01:44.551Z,18.75
2022-11-15T14:03:25.481Z,16.40
2022-11-15T14:05:01.164Z,18.00
2022-11-15T14:06:33.067Z,17.50
2022-11-15T14:08:24.062Z,17.25
2022-11-15T14:09:56.191Z,19.63
2022-11-15T14:11:28.919Z,19.90
2022-11-15T14:13:01.897Z,17.05
2022-11-15T14:14:33.698Z,18.15
2022-11-15T14:16:15.884Z,16.73
2022-11-15T14:17:50.181Z,17.88
2022-11-15T14:19:22.340Z,18.17
2022-11-15T14:21:07.668Z,19.05
2022-11-15T14:22:52.677Z,16.48
2022-11-15T14:24:32.317Z,16.35
2022-11-15T14:26:10.248Z,15.20
2022-11-15T14:27:45.862Z,16.65
2022-11-15T14:29:30.883Z,16.60
2022-11-15T14:31:02.965Z,16.27
2022-11-15T14:32:48.451Z,18.38
2022-11-15T14:34:22.262Z,16.02
2022-11-15T14:35:54.223Z,15.20
2022-11-15T14:37:36.316Z,15.57
2022-11-15T14:39:08.292Z,16.48
2022-11-15T14:40:40.320Z,15.10
2022-11-15T14:42:12.097Z,15.45
2022-11-15T14:43:43.820Z,16.75
2022-11-15T14:45:23.244Z,17.38
2022-11-15T14:46:55.006Z,16.83
2022-11-15T14:48:26.888Z,16.45
2022-11-15T14:49:59.091Z,16.85
2022-11-15T14:51:30.912Z,16.35
2022-11-15T14:53:02.954Z,16.60
2022-11-15T14:54:34.694Z,17.05
2022-11-15T14:56:06.485Z,16.33
2022-11-15T14:57:38.232Z,15.52
2022-11-15T14:59:09.975Z,15.32
2022-11-15T15:00:42.825Z,15.00
2022-11-15T15:02:20.982Z,16.58
2022-11-15T15:03:56.873Z,16.27
2022-11-15T15:05:38.861Z,15.35
2022-11-15T15:07:10.719Z,16.13
2022-11-15T15:08:42.529Z,15.82
2022-11-15T15:12:22.403Z,16.65
2022-11-15T15:13:57.469Z,15.40
2022-11-15T15:15:34.853Z,15.55
2022-11-15T15:17:06.611Z,14.32
2022-11-15T15:18:38.372Z,15.30
2022-11-15T15:20:11.294Z,16.63
2022-11-15T15:21:43.338Z,16.58
2022-11-15T15:23:20.005Z,16.52
2022-11-15T15:24:52.078Z,16.08
2022-11-15T15:26:26.963Z,17.02
2022-11-15T15:27:58.869Z,17.38
2022-11-15T15:29:30.610Z,17.88
2022-11-15T15:31:03.058Z,16.38
2022-11-15T15:32:34.814Z,17.00
2022-11-15T15:34:07.447Z,16.33
2022-11-15T15:35:41.693Z,16.80
2022-11-15T15:37:25.864Z,18.00
2022-11-15T15:38:57.675Z,17.73
2022-11-15T15:40:32.068Z,17.73
2022-11-15T15:42:05.001Z,16.88
2022-11-15T15:43:36.750Z,17.65
2022-11-15T15:45:09.965Z,16.88
2022-11-15T15:46:41.775Z,16.13
2022-11-15T15:48:15.416Z,17.25
2022-11-15T15:49:48.185Z,17.98
2022-11-15T15:51:20.838Z,15.95
2022-11-15T15:52:54.762Z,16.30
2022-11-15T15:54:26.493Z,17.73
2022-11-15T15:55:58.653Z,16.75
2022-11-15T15:57:30.394Z,18.33
2022-11-15T15:59:02.139Z,18.98
2022-11-15T16:00:34.761Z,18.50
2022-11-15T16:02:07.260Z,19.42
2022-11-15T16:03:39.010Z,18.08
2022-11-15T16:05:12.028Z,17.17
2022-11-15T16:06:45.530Z,17.52
2022-11-15T16:08:23.162Z,18.85
2022-11-15T16:10:01.555Z,18.52
2022-11-15T16:11:33.373Z,20.55
2022-11-15T16:13:05.211Z,20.50
2022-11-15T16:14:36.957Z,18.52
2022-11-15T16:16:13.711Z,19.60
2022-11-15T16:17:50.086Z,21.42
2022-11-15T16:19:21.857Z,20.38
2022-11-15T16:20:57.622Z,23.55
2022-11-15T16:22:30.292Z,22.45
2022-11-15T16:24:02.579Z,20.60
2022-11-15T16:25:47.868Z,21.63
2022-11-15T16:27:22.183Z,23.52
2022-11-15T16:28:53.959Z,22.73
2022-11-15T16:30:25.692Z,21.63
2022-11-15T16:31:57.487Z,19.98
2022-11-15T16:33:29.808Z,22.08
2022-11-15T16:35:01.683Z,21.85
2022-11-15T16:36:35.678Z,21.83
2022-11-15T16:38:14.203Z,26.85
2022-11-15T16:39:45.924Z,23.98
2022-11-15T16:41:19.320Z,20.33
2022-11-15T16:42:51.050Z,22.33
2022-11-15T16:44:23.586Z,22.65
2022-11-15T16:45:55.528Z,21.50
2022-11-15T16:47:27.252Z,23.67
2022-11-15T16:48:59.389Z,23.88
2022-11-15T16:50:35.242Z,22.35
2022-11-15T16:52:07.032Z,23.27
2022-11-15T16:53:39.365Z,24.58
2022-11-15T16:55:11.104Z,21.83
2022-11-15T16:56:43.296Z,24.70
2022-11-15T16:58:15.064Z,25.30
2022-11-15T16:59:46.816Z,23.95
2022-11-15T17:01:22.607Z,22.70
2022-11-15T17:02:54.571Z,26.67
2022-11-15T17:04:31.103Z,22.73
2022-11-15T17:06:02.847Z,24.17
2022-11-15T17:07:34.636Z,22.40
2022-11-15T17:09:08.932Z,23.52
2022-11-15T17:10:44.311Z,23.13
2022-11-15T17:12:17.054Z,23.55
2022-11-15T17:13:49.718Z,24.40
2022-11-15T17:15:21.745Z,24.00
2022-11-15T17:16:54.483Z,22.83
2022-11-15T17:18:26.230Z,22.75
2022-11-15T17:19:57.965Z,22.40
2022-11-15T17:21:33.562Z,22.70
2022-11-15T17:23:12.167Z,22.58
2022-11-15T17:24:43.875Z,25.35
2022-11-15T17:26:34.163Z,22.02
2022-11-15T17:28:08.050Z,24.30
2022-11-15T17:29:41.439Z,24.10
2022-11-15T17:31:15.045Z,22.27
2022-11-15T17:32:47.996Z,23.15
2022-11-15T17:34:19.781Z,23.20
2022-11-15T17:35:59.052Z,23.17
2022-11-15T17:37:30.767Z,22.33
2022-11-15T17:39:04.249Z,22.95
2022-11-15T17:40:36.032Z,21.05
2022-11-15T17:42:07.739Z,22.23
2022-11-15T17:43:39.486Z,22.63
2022-11-15T17:45:12.205Z,22.45
2022-11-15T17:46:44.616Z,25.17
2022-11-15T17:48:16.341Z,23.17
2022-11-15T17:49:48.077Z,22.02
2022-11-15T17:51:19.914Z,21.67
2022-11-15T17:52:51.673Z,22.55
2022-11-15T17:54:23.414Z,22.42
2022-11-15T17:55:56.272Z,23.25
2022-11-15T17:57:28.001Z,22.13
2022-11-15T17:59:00.789Z,23.20
2022-11-15T18:00:33.336Z,24.23
2022-11-15T18:02:06.306Z,21.20
2022-11-15T18:03:38.602Z,23.55
2022-11-15T18:05:10.356Z,23.60
2022-11-15T18:06:42.543Z,23.67
2022-11-15T18:08:17.127Z,24.20
2022-11-15T18:09:48.913Z,23.20
2022-11-15T18:11:23.635Z,23.70
2022-11-15T18:12:55.374Z,23.60
2022-11-15T18:14:27.304Z,25.27
2022-11-15T18:16:02.721Z,23.70
2022-11-15T18:17:34.482Z,24.10
2022-11-15T18:19:11.536Z,24.67
2022-11-15T18:20:43.346Z,23.30
2022-11-15T18:22:15.110Z,24.52
2022-11-15T18:23:47.971Z,26.10
2022-11-15T18:25:19.950Z,25.20
2022-11-15T18:26:51.951Z,24.55
2022-11-15T18:28:30.918Z,24.60
2022-11-15T18:30:02.926Z,27.10
2022-11-15T18:31:34.704Z,24.75
2022-11-15T18:33:06.437Z,25.27
2022-11-15T18:34:38.305Z,23.85
2022-11-15T18:36:12.600Z,23.92
2022-11-15T18:37:44.382Z,26.92
2022-11-15T18:39:16.567Z,24.42
2022-11-15T18:40:48.380Z,24.45
2022-11-15T18:42:20.106Z,23.00
2022-11-15T18:43:52.755Z,24.20
2022-11-15T18:45:24.529Z,23.38
2022-11-15T18:46:57.000Z,24.83
2022-11-15T18:48:32.529Z,25.70
2022-11-15T18:50:04.504Z,23.50
2022-11-15T18:51:41.987Z,24.20
2022-11-15T18:53:13.889Z,25.85
2022-11-15T18:54:45.707Z,26.90
2022-11-15T18:56:19.625Z,23.25
2022-11-15T18:57:51.358Z,22.77
2022-11-15T18:59:23.149Z,22.83
2022-11-15T19:01:01.252Z,25.65
2022-11-15T19:02:33.012Z,25.42
2022-11-15T19:04:22.973Z,24.77
2022-11-15T19:06:08.013Z,25.30
2022-11-15T19:07:39.780Z,24.23
2022-11-15T19:09:15.306Z,25.85
2022-11-15T19:10:47.028Z,23.33
2022-11-15T19:12:18.768Z,22.60
2022-11-15T19:13:56.498Z,22.02
2022-11-15T19:15:28.251Z,23.67
2022-11-15T19:17:02.768Z,23.98
2022-11-15T19:18:34.500Z,23.80
2022-11-15T19:20:06.587Z,23.30
2022-11-15T19:21:38.477Z,22.27
2022-11-15T19:23:10.205Z,21.63
2022-11-15T19:24:41.989Z,21.85
2022-11-15T19:26:15.889Z,21.98
2022-11-15T19:27:47.656Z,22.52
2022-11-15T19:29:19.462Z,21.23
2022-11-15T19:30:52.012Z,21.88
2022-11-15T19:32:23.734Z,23.20
2022-11-15T19:33:56.362Z,21.23
2022-11-15T19:35:28.127Z,21.83
2022-11-15T19:36:59.853Z,22.63
2022-11-15T19:38:32.748Z,22.60
2022-11-15T19:40:05.340Z,22.58
2022-11-15T19:41:38.754Z,22.55
2022-11-15T19:43:10.542Z,23.10
2022-11-15T19:44:42.411Z,22.60
2022-11-15T19:46:15.372Z,23.60
2022-11-15T19:47:47.088Z,24.00
2022-11-15T19:49:18.827Z,20.83
2022-11-15T19:50:51.250Z,23.13
2022-11-15T19:52:24.397Z,23.25
2022-11-15T19:53:58.261Z,23.67
2022-11-15T19:55:30.225Z,23.17
2022-11-15T19:57:02.014Z,21.65
2022-11-15T19:58:34.815Z,22.27
2022-11-15T20:00:07.732Z,24.58
2022-11-15T20:01:39.875Z,23.85
2022-11-15T20:03:11.889Z,23.55
2022-11-15T20:04:43.647Z,22.00
2022-11-15T20:06:18.118Z,22.17
2022-11-15T20:07:50.208Z,22.08
2022-11-15T20:09:21.952Z,22.05
2022-11-15T20:10:53.690Z,22.77
2022-11-15T20:12:25.418Z,22.40
2022-11-15T20:13:58.639Z,20.48
2022-11-15T20:15:30.537Z,22.38
2022-11-15T20:17:02.270Z,22.92
2022-11-15T20:18:34.966Z,22.50
2022-11-15T20:20:07.718Z,22.70
2022-11-15T20:21:39.480Z,20.80
2022-11-15T20:23:11.875Z,21.83
2022-11-15T20:24:43.615Z,20.95
2022-11-15T20:26:16.019Z,21.23
2022-11-15T20:27:47.877Z,22.08
2022-11-15T20:29:19.905Z,22.40
2022-11-15T20:30:54.666Z,21.70
2022-11-15T20:32:26.411Z,22.10
2022-11-15T20:33:58.549Z,21.35
2022-11-15T20:35:30.762Z,22.50
2022-11-15T20:37:02.644Z,20.05
2022-11-15T20:38:35.009Z,20.98
2022-11-15T20:40:07.788Z,22.45
2022-11-15T20:41:39.523Z,21.08
2022-11-15T20:43:13.896Z,19.35
2022-11-15T20:44:45.657Z,21.83
2022-11-15T20:46:17.954Z,20.95
2022-11-15T20:47:49.689Z,18.55
2022-11-15T20:49:21.729Z,20.30
2022-11-15T20:51:04.175Z,19.15
2022-11-15T20:52:35.899Z,20.83
2022-11-15T20:54:08.972Z,19.30
2022-11-15T20:55:42.602Z,20.48
2022-11-15T20:57:14.323Z,20.05
2022-11-15T20:58:46.256Z,19.42
2022-11-15T21:00:18.486Z,19.58
2022-11-15T21:01:50.461Z,20.13
2022-11-15T21:03:23.518Z,19.58
2022-11-15T21:04:55.346Z,20.20
2022-11-15T21:06:27.793Z,22.30
2022-11-15T21:07:59.565Z,19.60
2022-11-15T21:09:49.656Z,19.67
2022-11-15T21:11:39.774Z,19.00
2022-11-15T21:13:11.522Z,19.77
2022-11-15T21:14:44.508Z,18.20
2022-11-15T21:16:16.957Z,19.50
2022-11-15T21:17:48.698Z,19.63
2022-11-15T21:19:25.842Z,19.23
2022-11-15T21:21:06.710Z,18.58
2022-11-15T21:22:38.473Z,18.23
2022-11-15T21:24:10.402Z,19.50
2022-11-15T21:25:47.853Z,19.92
2022-11-15T21:27:19.599Z,18.15
2022-11-15T21:28:51.402Z,18.73
2022-11-15T21:30:23.215Z,19.27
2022-11-15T21:31:54.932Z,18.13
2022-11-15T21:33:30.734Z,18.23
2022-11-15T21:35:02.479Z,19.33
2022-11-15T21:36:34.219Z,17.38
2022-11-15T21:38:05.957Z,17.83
2022-11-15T21:39:38.624Z,18.05
2022-11-15T21:41:10.433Z,17.73
2022-11-15T21:42:42.175Z,17.63
2022-11-15T21:44:14.214Z,20.35
2022-11-15T21:45:56.890Z,20.25
2022-11-15T21:47:28.661Z,19.42
2022-11-15T21:49:00.531Z,20.77
2022-11-15T21:50:32.287Z,21.35
2022-11-15T21:52:04.165Z,20.52
2022-11-15T21:53:35.940Z,20.98
2022-11-15T21:55:08.724Z,19.10
2022-11-15T21:56:41.839Z,18.50
2022-11-15T21:58:13.573Z,18.80
2022-11-15T22:00:04.086Z,18.23
2022-11-15T22:01:54.941Z,17.98
2022-11-15T22:03:26.674Z,18.50
2022-11-15T22:04:58.412Z,18.77
2022-11-15T22:06:30.152Z,17.52
2022-11-15T22:08:02.142Z,17.00
2022-11-15T22:09:33.899Z,16.35
2022-11-15T22:11:05.916Z,18.13
2022-11-15T22:12:37.709Z,18.02
2022-11-15T22:14:09.486Z,19.20
2022-11-15T22:15:41.453Z,18.65
2022-11-15T22:17:13.265Z,18.83
2022-11-15T22:18:45.025Z,18.42